sensor_id;sensor_type;location;lat;lon;timestamp;pressure;altitude;pressure_sealevel;temperature;humidity
47104;BME280;32853;52.164;5.400;2023-01-30T00:00:54;101640.28;;;8.62;100.00
47104;BME280;32853;52.164;5.400;2023-01-30T00:03:21;101482.47;;;8.01;100.00
47104;BME280;32853;52.164;5.400;2023-01-30T00:05:46;101637.63;;;8.65;100.00
47104;BME280;32853;52.164;5.400;2023-01-30T00:08:12;101620.00;;;8.78;100.00
47104;BME280;32853;52.164;5.400;2023-01-30T00:10:37;101600.22;;;8.68;100.00
47104;BME280;32853;52.164;5.400;2023-01-30T00:13:03;101626.47;;;9.02;100.00
47104;BME280;32853;52.164;5.400;2023-01-30T00:15:28;101614.22;;;8.62;100.00
47104;BME280;32853;52.164;5.400;2023-01-30T00:17:53;101582.59;;;8.79;100.00
47104;BME280;32853;52.164;5.400;2023-01-30T00:20:19;101574.50;;;8.91;100.00
47104;BME280;32853;52.164;5.400;2023-01-30T00:22:44;101589.34;;;8.89;100.00
47104;BME280;32853;52.164;5.400;2023-01-30T00:25:09;101566.91;;;8.81;100.00
47104;BME280;32853;52.164;5.400;2023-01-30T00:27:35;101592.34;;;9.11;100.00
47104;BME280;32853;52.164;5.400;2023-01-30T00:30:00;101555.00;;;9.08;100.00
47104;BME280;32853;52.164;5.400;2023-01-30T00:32:28;101582.53;;;9.22;100.00
47104;BME280;32853;52.164;5.400;2023-01-30T00:34:53;101568.91;;;9.10;100.00
47104;BME280;32853;52.164;5.400;2023-01-30T00:37:19;101539.34;;;9.08;100.00
47104;BME280;32853;52.164;5.400;2023-01-30T00:39:44;101561.00;;;9.13;100.00
47104;BME280;32853;52.164;5.400;2023-01-30T00:42:09;101533.06;;;9.16;100.00
47104;BME280;32853;52.164;5.400;2023-01-30T00:44:53;101545.34;;;9.13;100.00
47104;BME280;32853;52.164;5.400;2023-01-30T00:47:37;101559.00;;;9.24;100.00
47104;BME280;32853;52.164;5.400;2023-01-30T00:50:03;101552.44;;;9.45;100.00
47104;BME280;32853;52.164;5.400;2023-01-30T00:52:29;101503.63;;;9.11;100.00
47104;BME280;32853;52.164;5.400;2023-01-30T00:54:54;101535.00;;;9.10;100.00
47104;BME280;32853;52.164;5.400;2023-01-30T00:57:19;101528.06;;;9.07;100.00
47104;BME280;32853;52.164;5.400;2023-01-30T00:59:44;101536.13;;;8.96;100.00
47104;BME280;32853;52.164;5.400;2023-01-30T01:02:10;101496.75;;;9.07;100.00
47104;BME280;32853;52.164;5.400;2023-01-30T01:04:37;101498.88;;;8.91;100.00
47104;BME280;32853;52.164;5.400;2023-01-30T01:07:08;101531.59;;;9.42;100.00
47104;BME280;32853;52.164;5.400;2023-01-30T01:09:34;101529.84;;;9.44;100.00
47104;BME280;32853;52.164;5.400;2023-01-30T01:11:59;101509.00;;;9.41;100.00
47104;BME280;32853;52.164;5.400;2023-01-30T01:14:24;101507.88;;;9.51;100.00
47104;BME280;32853;52.164;5.400;2023-01-30T01:16:50;101466.59;;;9.32;100.00
47104;BME280;32853;52.164;5.400;2023-01-30T01:19:15;101466.25;;;9.11;100.00
47104;BME280;32853;52.164;5.400;2023-01-30T01:21:40;101484.50;;;9.46;100.00
47104;BME280;32853;52.164;5.400;2023-01-30T01:24:08;101483.28;;;9.25;100.00
47104;BME280;32853;52.164;5.400;2023-01-30T01:26:46;101504.84;;;9.34;100.00
47104;BME280;32853;52.164;5.400;2023-01-30T01:29:15;101454.16;;;9.07;100.00
47104;BME280;32853;52.164;5.400;2023-01-30T01:31:42;101486.03;;;9.19;100.00
47104;BME280;32853;52.164;5.400;2023-01-30T01:34:33;101491.53;;;9.44;100.00
47104;BME280;32853;52.164;5.400;2023-01-30T01:36:59;101469.84;;;9.41;100.00
47104;BME280;32853;52.164;5.400;2023-01-30T01:39:35;101445.97;;;9.22;100.00
47104;BME280;32853;52.164;5.400;2023-01-30T01:42:23;101469.06;;;9.37;100.00
47104;BME280;32853;52.164;5.400;2023-01-30T01:45:18;101484.44;;;9.49;100.00
47104;BME280;32853;52.164;5.400;2023-01-30T01:53:00;101481.00;;;9.47;100.00
47104;BME280;32853;52.164;5.400;2023-01-30T01:55:26;101436.25;;;9.27;100.00
47104;BME280;32853;52.164;5.400;2023-01-30T01:57:56;101416.47;;;9.18;100.00
47104;BME280;32853;52.164;5.400;2023-01-30T02:00:24;101425.41;;;9.10;100.00
47104;BME280;32853;52.164;5.400;2023-01-30T02:02:55;101470.69;;;9.43;100.00
47104;BME280;32853;52.164;5.400;2023-01-30T02:05:23;101462.09;;;9.72;100.00
47104;BME280;32853;52.164;5.400;2023-01-30T02:08:02;101455.88;;;9.43;100.00
47104;BME280;32853;52.164;5.400;2023-01-30T02:10:44;101445.50;;;9.40;100.00
47104;BME280;32853;52.164;5.400;2023-01-30T02:13:19;101468.31;;;9.34;100.00
47104;BME280;32853;52.164;5.400;2023-01-30T02:15:44;101464.25;;;9.22;100.00
47104;BME280;32853;52.164;5.400;2023-01-30T02:18:11;101455.38;;;9.27;100.00
47104;BME280;32853;52.164;5.400;2023-01-30T02:21:04;101458.78;;;9.31;100.00
47104;BME280;32853;52.164;5.400;2023-01-30T02:34:49;101416.97;;;8.98;100.00
47104;BME280;32853;52.164;5.400;2023-01-30T02:37:26;101450.63;;;9.45;100.00
47104;BME280;32853;52.164;5.400;2023-01-30T02:40:12;101448.13;;;9.05;100.00
47104;BME280;32853;52.164;5.400;2023-01-30T02:42:51;101434.78;;;9.17;100.00
47104;BME280;32853;52.164;5.400;2023-01-30T02:48:36;101442.69;;;9.48;100.00
47104;BME280;32853;52.164;5.400;2023-01-30T02:54:04;101452.09;;;9.19;100.00
47104;BME280;32853;52.164;5.400;2023-01-30T02:56:42;101431.31;;;9.16;100.00
47104;BME280;32853;52.164;5.400;2023-01-30T02:59:08;101449.56;;;9.16;100.00
47104;BME280;32853;52.164;5.400;2023-01-30T03:04:41;101440.22;;;9.08;100.00
47104;BME280;32853;52.164;5.400;2023-01-30T03:07:37;101390.03;;;8.96;100.00
47104;BME280;32853;52.164;5.400;2023-01-30T03:15:27;101436.47;;;9.18;100.00
47104;BME280;32853;52.164;5.400;2023-01-30T03:17:55;101386.31;;;9.07;100.00
47104;BME280;32853;52.164;5.400;2023-01-30T03:20:24;101428.13;;;9.39;100.00
47104;BME280;32853;52.164;5.400;2023-01-30T03:22:49;101423.84;;;9.37;100.00
47104;BME280;32853;52.164;5.400;2023-01-30T03:25:24;101381.06;;;9.08;100.00
47104;BME280;32853;52.164;5.400;2023-01-30T03:27:51;101406.97;;;9.16;100.00
47104;BME280;32853;52.164;5.400;2023-01-30T03:30:18;101387.06;;;9.12;100.00
47104;BME280;32853;52.164;5.400;2023-01-30T03:32:44;101375.78;;;9.11;100.00
47104;BME280;32853;52.164;5.400;2023-01-30T03:35:09;101387.78;;;9.17;100.00
47104;BME280;32853;52.164;5.400;2023-01-30T03:37:35;101411.19;;;9.21;100.00
47104;BME280;32853;52.164;5.400;2023-01-30T03:40:01;101408.09;;;9.06;100.00
47104;BME280;32853;52.164;5.400;2023-01-30T03:42:27;101428.91;;;9.07;100.00
47104;BME280;32853;52.164;5.400;2023-01-30T03:44:52;101417.00;;;9.32;100.00
47104;BME280;32853;52.164;5.400;2023-01-30T03:47:18;101417.00;;;9.32;100.00
47104;BME280;32853;52.164;5.400;2023-01-30T03:49:44;101359.50;;;9.01;100.00
47104;BME280;32853;52.164;5.400;2023-01-30T03:52:09;101406.28;;;9.43;100.00
47104;BME280;32853;52.164;5.400;2023-01-30T03:54:34;101394.00;;;9.47;100.00
47104;BME280;32853;52.164;5.400;2023-01-30T03:57:01;101415.25;;;9.33;100.00
47104;BME280;32853;52.164;5.400;2023-01-30T03:59:36;101385.09;;;9.21;100.00
47104;BME280;32853;52.164;5.400;2023-01-30T04:02:02;101360.53;;;9.28;100.00
47104;BME280;32853;52.164;5.400;2023-01-30T04:04:27;101395.84;;;9.43;100.00
47104;BME280;32853;52.164;5.400;2023-01-30T04:06:58;101419.06;;;9.54;100.00
47104;BME280;32853;52.164;5.400;2023-01-30T04:09:24;101392.97;;;9.52;100.00
47104;BME280;32853;52.164;5.400;2023-01-30T04:11:49;101403.50;;;9.49;100.00
47104;BME280;32853;52.164;5.400;2023-01-30T04:14:16;101415.91;;;9.40;100.00
47104;BME280;32853;52.164;5.400;2023-01-30T04:16:42;101412.34;;;9.44;100.00
47104;BME280;32853;52.164;5.400;2023-01-30T04:19:32;101410.06;;;9.64;100.00
47104;BME280;32853;52.164;5.400;2023-01-30T04:22:15;101388.44;;;9.26;100.00
47104;BME280;32853;52.164;5.400;2023-01-30T04:24:40;101428.34;;;9.64;100.00
47104;BME280;32853;52.164;5.400;2023-01-30T04:27:11;101384.88;;;9.29;100.00
47104;BME280;32853;52.164;5.400;2023-01-30T04:29:36;101375.25;;;9.31;100.00
47104;BME280;32853;52.164;5.400;2023-01-30T04:32:01;101417.34;;;9.51;100.00
47104;BME280;32853;52.164;5.400;2023-01-30T04:34:29;101372.91;;;9.22;100.00
47104;BME280;32853;52.164;5.400;2023-01-30T04:37:01;101425.00;;;9.59;100.00
47104;BME280;32853;52.164;5.400;2023-01-30T04:39:26;101417.63;;;9.42;100.00
47104;BME280;32853;52.164;5.400;2023-01-30T04:41:53;101407.75;;;9.52;100.00
47104;BME280;32853;52.164;5.400;2023-01-30T04:44:26;101418.97;;;9.57;100.00
47104;BME280;32853;52.164;5.400;2023-01-30T04:46:52;101379.47;;;9.37;100.00
47104;BME280;32853;52.164;5.400;2023-01-30T04:49:18;101423.72;;;9.41;100.00
47104;BME280;32853;52.164;5.400;2023-01-30T04:51:43;101411.31;;;9.49;100.00
47104;BME280;32853;52.164;5.400;2023-01-30T04:54:11;101375.25;;;9.31;100.00
47104;BME280;32853;52.164;5.400;2023-01-30T04:56:38;101416.81;;;9.39;100.00
47104;BME280;32853;52.164;5.400;2023-01-30T04:59:03;101378.19;;;9.51;100.00
47104;BME280;32853;52.164;5.400;2023-01-30T05:01:34;101402.53;;;9.53;100.00
47104;BME280;32853;52.164;5.400;2023-01-30T05:04:01;101401.13;;;9.40;100.00
47104;BME280;32853;52.164;5.400;2023-01-30T05:06:31;101369.53;;;9.17;100.00
47104;BME280;32853;52.164;5.400;2023-01-30T05:08:57;101447.19;;;9.43;100.00
47104;BME280;32853;52.164;5.400;2023-01-30T05:11:24;101417.25;;;9.56;100.00
47104;BME280;32853;52.164;5.400;2023-01-30T05:13:50;101428.31;;;9.66;100.00
47104;BME280;32853;52.164;5.400;2023-01-30T05:16:16;101422.38;;;9.59;100.00
47104;BME280;32853;52.164;5.400;2023-01-30T05:18:42;101423.78;;;9.38;100.00
47104;BME280;32853;52.164;5.400;2023-01-30T05:21:14;101425.63;;;9.35;100.00
47104;BME280;32853;52.164;5.400;2023-01-30T05:23:40;101437.09;;;9.61;100.00
47104;BME280;32853;52.164;5.400;2023-01-30T05:26:05;101412.66;;;9.31;100.00
47104;BME280;32853;52.164;5.400;2023-01-30T05:28:31;101398.34;;;9.46;100.00
47104;BME280;32853;52.164;5.400;2023-01-30T05:31:07;101373.91;;;9.16;100.00
47104;BME280;32853;52.164;5.400;2023-01-30T05:33:36;101441.03;;;9.45;100.00
47104;BME280;32853;52.164;5.400;2023-01-30T05:36:05;101447.28;;;9.38;100.00
47104;BME280;32853;52.164;5.400;2023-01-30T05:38:34;101407.47;;;9.30;100.00
47104;BME280;32853;52.164;5.400;2023-01-30T05:41:05;101425.00;;;9.25;100.00
47104;BME280;32853;52.164;5.400;2023-01-30T05:43:32;101434.47;;;9.29;100.00
47104;BME280;32853;52.164;5.400;2023-01-30T05:45:59;101466.41;;;9.39;100.00
47104;BME280;32853;52.164;5.400;2023-01-30T05:48:25;101459.31;;;9.45;100.00
47104;BME280;32853;52.164;5.400;2023-01-30T05:50:51;101445.16;;;9.54;100.00
47104;BME280;32853;52.164;5.400;2023-01-30T05:53:21;101452.44;;;9.41;100.00
47104;BME280;32853;52.164;5.400;2023-01-30T05:55:56;101457.06;;;9.30;100.00
47104;BME280;32853;52.164;5.400;2023-01-30T05:58:22;101413.03;;;8.81;100.00
47104;BME280;32853;52.164;5.400;2023-01-30T06:00:47;101460.66;;;9.26;100.00
47104;BME280;32853;52.164;5.400;2023-01-30T06:03:13;101441.16;;;9.39;100.00
47104;BME280;32853;52.164;5.400;2023-01-30T06:05:43;101455.78;;;9.46;100.00
47104;BME280;32853;52.164;5.400;2023-01-30T06:08:11;101459.78;;;9.25;100.00
47104;BME280;32853;52.164;5.400;2023-01-30T06:10:37;101474.16;;;9.06;100.00
47104;BME280;32853;52.164;5.400;2023-01-30T06:13:03;101432.50;;;8.66;100.00
47104;BME280;32853;52.164;5.400;2023-01-30T06:15:37;101474.06;;;8.72;100.00
47104;BME280;32853;52.164;5.400;2023-01-30T06:18:07;101481.38;;;8.95;100.00
47104;BME280;32853;52.164;5.400;2023-01-30T06:20:45;101474.97;;;9.10;100.00
47104;BME280;32853;52.164;5.400;2023-01-30T06:23:10;101466.63;;;8.94;100.00
47104;BME280;32853;52.164;5.400;2023-01-30T06:25:36;101467.75;;;8.82;100.00
47104;BME280;32853;52.164;5.400;2023-01-30T06:28:09;101460.56;;;8.93;100.00
47104;BME280;32853;52.164;5.400;2023-01-30T06:30:38;101462.94;;;9.02;100.00
47104;BME280;32853;52.164;5.400;2023-01-30T06:33:05;101479.94;;;8.82;100.00
47104;BME280;32853;52.164;5.400;2023-01-30T06:35:31;101477.69;;;8.66;100.00
47104;BME280;32853;52.164;5.400;2023-01-30T06:38:01;101433.16;;;8.34;100.00
47104;BME280;32853;52.164;5.400;2023-01-30T06:40:31;101486.56;;;8.58;100.00
47104;BME280;32853;52.164;5.400;2023-01-30T06:43:03;101477.00;;;8.58;100.00
47104;BME280;32853;52.164;5.400;2023-01-30T06:45:34;101496.81;;;8.67;100.00
47104;BME280;32853;52.164;5.400;2023-01-30T06:48:06;101440.38;;;8.21;100.00
47104;BME280;32853;52.164;5.400;2023-01-30T06:50:38;101476.00;;;8.19;100.00
47104;BME280;32853;52.164;5.400;2023-01-30T06:53:06;101491.69;;;8.61;100.00
47104;BME280;32853;52.164;5.400;2023-01-30T06:55:33;101492.47;;;8.66;100.00
47104;BME280;32853;52.164;5.400;2023-01-30T06:58:01;101490.69;;;8.25;100.00
47104;BME280;32853;52.164;5.400;2023-01-30T07:00:41;101497.13;;;8.50;100.00
47104;BME280;32853;52.164;5.400;2023-01-30T07:03:11;101484.69;;;8.63;100.00
47104;BME280;32853;52.164;5.400;2023-01-30T07:05:42;101479.16;;;8.38;100.00
47104;BME280;32853;52.164;5.400;2023-01-30T07:08:08;101410.19;;;7.68;100.00
47104;BME280;32853;52.164;5.400;2023-01-30T07:10:34;101467.22;;;8.25;100.00
47104;BME280;32853;52.164;5.400;2023-01-30T07:13:07;101474.44;;;8.12;100.00
47104;BME280;32853;52.164;5.400;2023-01-30T07:15:32;101527.44;;;8.56;100.00
47104;BME280;32853;52.164;5.400;2023-01-30T07:17:58;101523.09;;;8.56;100.00
47104;BME280;32853;52.164;5.400;2023-01-30T07:20:27;101523.06;;;8.58;100.00
47104;BME280;32853;52.164;5.400;2023-01-30T07:23:04;101540.34;;;8.62;100.00
47104;BME280;32853;52.164;5.400;2023-01-30T07:25:29;101529.66;;;8.29;100.00
47104;BME280;32853;52.164;5.400;2023-01-30T07:28:00;101520.06;;;8.34;100.00
47104;BME280;32853;52.164;5.400;2023-01-30T07:30:28;101545.19;;;8.37;100.00
47104;BME280;32853;52.164;5.400;2023-01-30T07:32:56;101563.44;;;8.37;100.00
47104;BME280;32853;52.164;5.400;2023-01-30T07:35:35;101547.69;;;8.41;100.00
47104;BME280;32853;52.164;5.400;2023-01-30T07:38:04;101541.78;;;8.35;100.00
47104;BME280;32853;52.164;5.400;2023-01-30T07:40:39;101533.94;;;8.35;100.00
47104;BME280;32853;52.164;5.400;2023-01-30T07:43:12;101552.03;;;8.44;100.00
47104;BME280;32853;52.164;5.400;2023-01-30T07:45:41;101553.94;;;8.31;100.00
47104;BME280;32853;52.164;5.400;2023-01-30T07:48:10;101552.88;;;8.44;100.00
47104;BME280;32853;52.164;5.400;2023-01-30T07:50:39;101505.75;;;8.07;100.00
47104;BME280;32853;52.164;5.400;2023-01-30T07:53:14;101541.94;;;8.24;100.00
47104;BME280;32853;52.164;5.400;2023-01-30T07:55:42;101547.59;;;8.48;100.00
47104;BME280;32853;52.164;5.400;2023-01-30T07:58:12;101496.13;;;8.12;100.00
47104;BME280;32853;52.164;5.400;2023-01-30T08:00:39;101527.50;;;8.06;100.00
47104;BME280;32853;52.164;5.400;2023-01-30T08:03:04;101542.91;;;8.19;100.00
47104;BME280;32853;52.164;5.400;2023-01-30T08:05:30;101554.13;;;8.24;100.00
47104;BME280;32853;52.164;5.400;2023-01-30T08:07:56;101516.88;;;8.17;100.00
47104;BME280;32853;52.164;5.400;2023-01-30T08:10:24;101554.00;;;8.28;100.00
47104;BME280;32853;52.164;5.400;2023-01-30T08:12:50;101527.88;;;8.33;100.00
47104;BME280;32853;52.164;5.400;2023-01-30T08:15:23;101530.63;;;8.25;100.00
47104;BME280;32853;52.164;5.400;2023-01-30T08:17:55;101524.53;;;8.26;100.00
47104;BME280;32853;52.164;5.400;2023-01-30T08:20:21;101562.09;;;8.61;100.00
47104;BME280;32853;52.164;5.400;2023-01-30T08:22:46;101406.38;;;7.38;100.00
47104;BME280;32853;52.164;5.400;2023-01-30T08:25:12;101555.59;;;8.38;100.00
47104;BME280;32853;52.164;5.400;2023-01-30T08:27:37;101550.97;;;8.53;100.00
47104;BME280;32853;52.164;5.400;2023-01-30T08:30:03;101564.06;;;8.50;100.00
47104;BME280;32853;52.164;5.400;2023-01-30T08:32:28;101546.53;;;8.11;100.00
47104;BME280;32853;52.164;5.400;2023-01-30T08:34:54;101608.53;;;8.40;100.00
47104;BME280;32853;52.164;5.400;2023-01-30T08:37:30;101593.84;;;8.81;100.00
47104;BME280;32853;52.164;5.400;2023-01-30T08:40:11;101607.50;;;8.51;100.00
47104;BME280;32853;52.164;5.400;2023-01-30T08:42:36;101606.06;;;8.33;100.00
47104;BME280;32853;52.164;5.400;2023-01-30T08:45:32;101596.84;;;8.61;100.00
47104;BME280;32853;52.164;5.400;2023-01-30T08:48:02;101553.91;;;8.36;100.00
47104;BME280;32853;52.164;5.400;2023-01-30T08:50:31;101583.63;;;8.70;100.00
47104;BME280;32853;52.164;5.400;2023-01-30T08:53:08;101600.75;;;8.84;100.00
47104;BME280;32853;52.164;5.400;2023-01-30T08:55:34;101541.31;;;8.58;100.00
47104;BME280;32853;52.164;5.400;2023-01-30T08:57:59;101555.97;;;8.63;100.00
47104;BME280;32853;52.164;5.400;2023-01-30T09:00:26;101587.06;;;8.72;100.00
47104;BME280;32853;52.164;5.400;2023-01-30T09:02:56;101566.56;;;8.56;100.00
47104;BME280;32853;52.164;5.400;2023-01-30T09:05:22;101613.28;;;9.10;100.00
47104;BME280;32853;52.164;5.400;2023-01-30T09:07:49;101619.00;;;8.84;100.00
47104;BME280;32853;52.164;5.400;2023-01-30T09:10:14;101614.69;;;8.83;100.00
47104;BME280;32853;52.164;5.400;2023-01-30T09:12:40;101633.50;;;8.98;100.00
47104;BME280;32853;52.164;5.400;2023-01-30T09:15:06;101623.13;;;8.95;100.00
47104;BME280;32853;52.164;5.400;2023-01-30T09:17:31;101623.50;;;8.77;100.00
47104;BME280;32853;52.164;5.400;2023-01-30T09:19:56;101588.97;;;8.66;100.00
47104;BME280;32853;52.164;5.400;2023-01-30T09:22:22;101645.59;;;9.02;100.00
47104;BME280;32853;52.164;5.400;2023-01-30T09:24:48;101640.25;;;9.07;100.00
47104;BME280;32853;52.164;5.400;2023-01-30T09:27:18;101652.78;;;8.91;100.00
47104;BME280;32853;52.164;5.400;2023-01-30T09:29:46;101648.19;;;9.02;100.00
47104;BME280;32853;52.164;5.400;2023-01-30T09:32:12;101646.97;;;9.20;100.00
47104;BME280;32853;52.164;5.400;2023-01-30T09:34:37;101643.31;;;8.86;100.00
47104;BME280;32853;52.164;5.400;2023-01-30T09:37:02;101608.47;;;8.90;100.00
47104;BME280;32853;52.164;5.400;2023-01-30T09:39:28;101642.91;;;9.06;100.00
47104;BME280;32853;52.164;5.400;2023-01-30T09:47:33;101664.56;;;9.11;100.00
47104;BME280;32853;52.164;5.400;2023-01-30T09:56:44;101676.16;;;9.38;100.00
47104;BME280;32853;52.164;5.400;2023-01-30T09:59:29;101671.50;;;9.12;100.00
47104;BME280;32853;52.164;5.400;2023-01-30T10:04:43;101637.94;;;8.93;100.00
47104;BME280;32853;52.164;5.400;2023-01-30T10:10:34;101683.31;;;9.28;100.00
47104;BME280;32853;52.164;5.400;2023-01-30T10:13:31;101688.09;;;9.08;100.00
47104;BME280;32853;52.164;5.400;2023-01-30T10:26:42;101716.44;;;9.26;100.00
47104;BME280;32853;52.164;5.400;2023-01-30T10:29:12;101715.69;;;9.19;100.00
47104;BME280;32853;52.164;5.400;2023-01-30T10:34:19;101675.59;;;9.23;100.00
47104;BME280;32853;52.164;5.400;2023-01-30T10:37:05;101706.75;;;9.31;100.00
47104;BME280;32853;52.164;5.400;2023-01-30T10:42:51;101704.25;;;9.26;100.00
47104;BME280;32853;52.164;5.400;2023-01-30T10:45:31;101717.25;;;9.28;100.00
47104;BME280;32853;52.164;5.400;2023-01-30T10:50:53;101685.88;;;8.89;100.00
47104;BME280;32853;52.164;5.400;2023-01-30T10:56:12;101585.69;;;8.53;100.00
47104;BME280;32853;52.164;5.400;2023-01-30T10:58:47;101591.72;;;9.00;100.00
47104;BME280;32853;52.164;5.400;2023-01-30T11:03:56;101523.22;;;8.90;100.00
47104;BME280;32853;52.164;5.400;2023-01-30T11:06:25;101703.53;;;9.97;100.00
47104;BME280;32853;52.164;5.400;2023-01-30T11:08:52;101715.06;;;9.90;100.00
47104;BME280;32853;52.164;5.400;2023-01-30T11:11:40;101715.44;;;10.10;100.00
47104;BME280;32853;52.164;5.400;2023-01-30T11:14:09;101671.78;;;9.78;100.00
47104;BME280;32853;52.164;5.400;2023-01-30T11:16:55;101666.31;;;9.89;100.00
47104;BME280;32853;52.164;5.400;2023-01-30T11:19:23;101680.41;;;9.82;100.00
47104;BME280;32853;52.164;5.400;2023-01-30T11:21:54;101685.69;;;9.79;100.00
47104;BME280;32853;52.164;5.400;2023-01-30T11:24:29;101705.75;;;9.78;100.00
47104;BME280;32853;52.164;5.400;2023-01-30T11:27:29;101709.94;;;9.84;100.00
47104;BME280;32853;52.164;5.400;2023-01-30T11:30:25;101721.13;;;9.90;100.00
47104;BME280;32853;52.164;5.400;2023-01-30T11:33:04;101707.16;;;9.92;100.00
47104;BME280;32853;52.164;5.400;2023-01-30T11:35:39;101721.22;;;9.87;100.00
47104;BME280;32853;52.164;5.400;2023-01-30T11:38:15;101674.44;;;9.77;100.00
47104;BME280;32853;52.164;5.400;2023-01-30T11:40:44;101699.19;;;9.59;100.00
47104;BME280;32853;52.164;5.400;2023-01-30T11:43:11;101716.69;;;9.94;100.00
47104;BME280;32853;52.164;5.400;2023-01-30T11:45:51;101700.59;;;9.74;100.00
47104;BME280;32853;52.164;5.400;2023-01-30T11:48:25;101699.81;;;10.09;100.00
47104;BME280;32853;52.164;5.400;2023-01-30T11:50:59;101717.53;;;9.95;100.00
47104;BME280;32853;52.164;5.400;2023-01-30T11:53:37;101663.00;;;10.16;100.00
47104;BME280;32853;52.164;5.400;2023-01-30T11:56:14;101675.44;;;10.07;100.00
47104;BME280;32853;52.164;5.400;2023-01-30T11:58:52;101722.69;;;10.36;100.00
47104;BME280;32853;52.164;5.400;2023-01-30T12:01:29;101656.97;;;9.79;99.26
47104;BME280;32853;52.164;5.400;2023-01-30T12:04:18;101725.88;;;10.47;100.00
47104;BME280;32853;52.164;5.400;2023-01-30T12:07:27;101733.81;;;10.44;100.00
47104;BME280;32853;52.164;5.400;2023-01-30T12:09:54;101736.47;;;10.43;100.00
47104;BME280;32853;52.164;5.400;2023-01-30T12:12:52;101741.09;;;10.32;98.91
47104;BME280;32853;52.164;5.400;2023-01-30T12:15:27;101745.00;;;10.12;100.00
47104;BME280;32853;52.164;5.400;2023-01-30T12:18:15;101739.31;;;9.95;100.00
47104;BME280;32853;52.164;5.400;2023-01-30T12:23:37;101753.25;;;10.34;98.79
47104;BME280;32853;52.164;5.400;2023-01-30T12:29:26;101751.09;;;10.13;98.59
47104;BME280;32853;52.164;5.400;2023-01-30T12:32:15;101716.03;;;10.23;98.20
47104;BME280;32853;52.164;5.400;2023-01-30T12:38:17;101748.66;;;10.05;94.48
47104;BME280;32853;52.164;5.400;2023-01-30T12:41:05;101682.94;;;9.46;95.11
47104;BME280;32853;52.164;5.400;2023-01-30T12:47:00;101763.16;;;10.18;97.60
47104;BME280;32853;52.164;5.400;2023-01-30T12:57:39;101764.50;;;9.99;95.45
47104;BME280;32853;52.164;5.400;2023-01-30T13:06:52;101770.63;;;9.97;92.85
47104;BME280;32853;52.164;5.400;2023-01-30T13:17:30;101750.19;;;9.75;92.80
47104;BME280;32853;52.164;5.400;2023-01-30T13:23:14;101791.75;;;9.86;92.17
47104;BME280;32853;52.164;5.400;2023-01-30T13:26:09;101799.63;;;9.84;93.71
47104;BME280;32853;52.164;5.400;2023-01-30T13:28:40;101787.50;;;9.82;94.26
47104;BME280;32853;52.164;5.400;2023-01-30T13:31:11;101789.97;;;9.89;95.35
47104;BME280;32853;52.164;5.400;2023-01-30T13:33:41;101820.16;;;10.03;95.39
47104;BME280;32853;52.164;5.400;2023-01-30T13:38:35;101831.13;;;9.78;98.54
47104;BME280;32853;52.164;5.400;2023-01-30T13:41:07;101789.88;;;9.93;97.11
47104;BME280;32853;52.164;5.400;2023-01-30T13:43:47;101810.13;;;9.83;95.22
47104;BME280;32853;52.164;5.400;2023-01-30T13:46:24;101810.84;;;9.91;96.21
47104;BME280;32853;52.164;5.400;2023-01-30T13:49:05;101824.31;;;10.11;97.20
47104;BME280;32853;52.164;5.400;2023-01-30T13:51:41;101850.34;;;10.16;95.91
47104;BME280;32853;52.164;5.400;2023-01-30T13:57:47;101849.44;;;10.17;94.05
47104;BME280;32853;52.164;5.400;2023-01-30T14:03:30;101827.66;;;10.18;93.20
47104;BME280;32853;52.164;5.400;2023-01-30T14:11:25;101886.75;;;10.27;92.97
47104;BME280;32853;52.164;5.400;2023-01-30T14:16:44;101892.19;;;10.16;93.85
47104;BME280;32853;52.164;5.400;2023-01-30T14:30:37;101925.25;;;9.74;97.32
47104;BME280;32853;52.164;5.400;2023-01-30T14:38:19;101940.47;;;9.98;97.03
47104;BME280;32853;52.164;5.400;2023-01-30T14:45:59;101935.97;;;10.05;95.76
47104;BME280;32853;52.164;5.400;2023-01-30T14:48:44;101951.13;;;9.86;97.35
47104;BME280;32853;52.164;5.400;2023-01-30T14:51:24;101960.94;;;9.76;97.44
47104;BME280;32853;52.164;5.400;2023-01-30T14:53:59;101961.25;;;10.04;97.03
47104;BME280;32853;52.164;5.400;2023-01-30T15:02:02;101971.28;;;9.81;98.36
47104;BME280;32853;52.164;5.400;2023-01-30T15:04:31;101982.34;;;9.94;97.24
47104;BME280;32853;52.164;5.400;2023-01-30T15:07:08;101986.16;;;9.77;99.01
47104;BME280;32853;52.164;5.400;2023-01-30T15:09:36;101982.75;;;10.18;96.36
47104;BME280;32853;52.164;5.400;2023-01-30T15:20:42;102002.75;;;10.23;96.82
47104;BME280;32853;52.164;5.400;2023-01-30T15:32:14;102015.72;;;9.79;97.91
47104;BME280;32853;52.164;5.400;2023-01-30T15:42:35;102044.22;;;9.93;98.61
47104;BME280;32853;52.164;5.400;2023-01-30T15:45:10;102029.63;;;9.81;98.45
47104;BME280;32853;52.164;5.400;2023-01-30T15:48:05;102054.75;;;9.88;99.40
47104;BME280;32853;52.164;5.400;2023-01-30T15:50:36;102050.75;;;9.68;100.00
47104;BME280;32853;52.164;5.400;2023-01-30T15:53:13;102055.84;;;9.75;99.47
47104;BME280;32853;52.164;5.400;2023-01-30T15:55:40;101999.44;;;9.13;100.00
47104;BME280;32853;52.164;5.400;2023-01-30T15:58:17;102007.84;;;9.31;100.00
47104;BME280;32853;52.164;5.400;2023-01-30T16:01:02;102056.22;;;10.03;100.00
47104;BME280;32853;52.164;5.400;2023-01-30T16:03:32;102068.44;;;10.03;100.00
47104;BME280;32853;52.164;5.400;2023-01-30T16:06:01;102049.09;;;9.62;100.00
47104;BME280;32853;52.164;5.400;2023-01-30T16:08:34;102056.53;;;9.34;100.00
47104;BME280;32853;52.164;5.400;2023-01-30T16:11:01;102086.91;;;9.38;100.00
47104;BME280;32853;52.164;5.400;2023-01-30T16:13:29;102084.66;;;9.14;100.00